Photometre #546[NE_1.6] Izana AOT

File : 20190928_546.hum

28/09/2019,07:38:21,TEMP=15.1,BA=5.60,STAT.A=Abs.,ExtBa=13.70
28/09/2019,07:41:16,TEMP=15.4,BA=5.56,STAT.A=Abs.,ExtBa=13.40
28/09/2019,07:44:41,TEMP=15.5,BA=5.56,STAT.A=Abs.,ExtBa=13.20
28/09/2019,07:48:43,TEMP=15.6,BA=5.56,STAT.A=Abs.,ExtBa=13.20
28/09/2019,07:53:35,TEMP=15.7,BA=5.56,STAT.A=Abs.,ExtBa=13.30
28/09/2019,07:59:34,TEMP=16.0,BA=5.56,STAT.A=Abs.,ExtBa=13.20
28/09/2019,08:07:07,TEMP=16.3,BA=5.56,STAT.B=Abs.,ExtBa=13.40
28/09/2019,08:17:46,TEMP=17.1,BA=5.56,STAT.A=Abs.,ExtBa=12.80
28/09/2019,08:19:47,TEMP=17.2,BA=5.56,STAT.A=Abs.,ExtBa=12.90
28/09/2019,08:21:46,TEMP=17.3,BA=5.56,STAT.A=Abs.,ExtBa=12.90
28/09/2019,08:24:24,TEMP=17.2,BA=5.56,STAT.A=Abs.,ExtBa=12.90
28/09/2019,08:30:17,TEMP=17.0,BA=5.60,STAT.C=Abs.,ExtBa=13.10
28/09/2019,08:46:49,TEMP=18.1,BA=5.56,STAT.A=Abs.,ExtBa=12.80
28/09/2019,08:48:48,TEMP=18.2,BA=5.56,STAT.A=Abs.,ExtBa=12.90
28/09/2019,08:54:29,TEMP=17.9,BA=5.56,STAT.A=Abs.,ExtBa=13.10
28/09/2019,09:05:58,TEMP=18.4,BA=5.60,STAT.A=Abs.,ExtBa=13.40
28/09/2019,09:20:14,TEMP=19.2,BA=5.56,STAT.B=Abs.,ExtBa=13.40
28/09/2019,09:50:01,TEMP=20.0,BA=5.60,STAT.B=Abs.,ExtBa=13.40
28/09/2019,10:00:39,TEMP=20.4,BA=5.56,STAT.F,ExtBa=12.80
28/09/2019,10:17:26,TEMP=20.6,BA=5.56,STAT.D=Abs.,ExtBa=12.80
28/09/2019,10:27:21,TEMP=20.7,BA=5.60,STAT.D=Abs.,ExtBa=13.20
28/09/2019,10:42:21,TEMP=21.5,BA=5.60,STAT.D=Abs.,ExtBa=13.30
28/09/2019,10:57:23,TEMP=22.4,BA=5.60,STAT.F,ExtBa=13.40
28/09/2019,11:13:26,TEMP=23.2,BA=5.56,STAT.D=Abs.,ExtBa=12.80
28/09/2019,11:27:21,TEMP=22.5,BA=5.60,STAT.D=Abs.,ExtBa=13.30
28/09/2019,11:42:22,TEMP=22.8,BA=5.60,STAT.D=Abs.,ExtBa=13.40
28/09/2019,11:57:23,TEMP=23.0,BA=5.60,STAT.F,ExtBa=13.40
28/09/2019,12:12:22,TEMP=22.8,BA=5.60,STAT.D=Abs.,ExtBa=13.30
28/09/2019,12:27:21,TEMP=23.3,BA=5.60,STAT.D=Abs.,ExtBa=13.40
28/09/2019,12:42:21,TEMP=23.3,BA=5.60,STAT.D=Abs.,ExtBa=13.40
28/09/2019,12:57:23,TEMP=23.4,BA=5.60,STAT.F,ExtBa=13.40
28/09/2019,13:12:22,TEMP=23.9,BA=5.60,STAT.D=Abs.,ExtBa=13.30
28/09/2019,13:27:22,TEMP=24.3,BA=5.56,STAT.D=Abs.,ExtBa=13.40
28/09/2019,13:42:22,TEMP=24.6,BA=5.60,STAT.D=Abs.,ExtBa=13.40
28/09/2019,13:57:23,TEMP=24.6,BA=5.60,STAT.F,ExtBa=13.40
28/09/2019,14:12:22,TEMP=23.6,BA=5.60,STAT.D=Abs.,ExtBa=13.30
28/09/2019,14:27:21,TEMP=23.9,BA=5.60,STAT.D=Abs.,ExtBa=13.40
28/09/2019,14:42:21,TEMP=23.5,BA=5.60,STAT.D=Abs.,ExtBa=13.40
28/09/2019,14:57:23,TEMP=23.0,BA=5.60,STAT.F,ExtBa=13.50
28/09/2019,15:13:36,TEMP=22.9,BA=5.56,STAT.D=Abs.,ExtBa=12.90
28/09/2019,15:27:21,TEMP=21.9,BA=5.60,STAT.D=Abs.,ExtBa=13.30
28/09/2019,15:42:21,TEMP=22.2,BA=5.60,STAT.D=Abs.,ExtBa=13.40
28/09/2019,15:57:22,TEMP=22.5,BA=5.60,STAT.F,ExtBa=13.40
28/09/2019,16:13:49,TEMP=23.3,BA=5.52,STAT.B=Abs.,ExtBa=12.90
28/09/2019,16:34:30,TEMP=23.0,BA=5.56,STAT.B=Abs.,ExtBa=13.20
28/09/2019,16:48:46,TEMP=22.7,BA=5.52,STAT.A=Abs.,ExtBa=13.00
28/09/2019,17:00:15,TEMP=22.1,BA=5.56,STAT.A=Abs.,ExtBa=13.20
28/09/2019,17:09:42,TEMP=21.6,BA=5.56,STAT.A=Abs.,ExtBa=13.20
28/09/2019,17:17:39,TEMP=21.3,BA=5.56,STAT.A=Abs.,ExtBa=13.30
28/09/2019,17:24:27,TEMP=21.1,BA=5.56,STAT.C=Abs.,ExtBa=13.30
28/09/2019,17:43:36,TEMP=20.7,BA=5.48,STAT.A=Abs.,ExtBa=12.80
28/09/2019,17:45:49,TEMP=20.6,BA=5.48,STAT.A=Abs.,ExtBa=12.80
28/09/2019,17:47:52,TEMP=20.5,BA=5.48,STAT.A=Abs.,ExtBa=12.80
28/09/2019,17:49:59,TEMP=20.4,BA=5.48,STAT.A=Abs.,ExtBa=12.80
28/09/2019,17:52:03,TEMP=20.3,BA=5.52,STAT.B=Abs.,ExtBa=12.80
28/09/2019,18:04:26,TEMP=19.6,BA=5.48,STAT.A=Abs.,ExtBa=12.80
28/09/2019,18:06:37,TEMP=19.5,BA=5.48,STAT.A=Abs.,ExtBa=12.80
28/09/2019,18:08:49,TEMP=19.5,BA=5.48,STAT.A=Abs.,ExtBa=12.80
28/09/2019,18:11:00,TEMP=19.4,BA=5.48,STAT.A=Abs.,ExtBa=12.80
28/09/2019,18:13:26,TEMP=19.1,BA=5.48,STAT.A=Abs.,ExtBa=12.80
28/09/2019,18:16:21,TEMP=18.9,BA=5.48,STAT.A=Abs.,ExtBa=12.80